createdAt,value
2022-08-05T00:02:22.484Z,23.58
2022-08-05T00:04:55.764Z,23.52
2022-08-05T00:07:58.930Z,23.47
2022-08-05T00:10:11.841Z,23.43
2022-08-05T00:12:55.619Z,23.37
2022-08-05T00:15:56.050Z,23.34
2022-08-05T00:18:21.672Z,23.29
2022-08-05T00:20:51.427Z,23.29
2022-08-05T00:23:44.468Z,23.26
2022-08-05T00:26:07.903Z,23.21
2022-08-05T00:28:37.518Z,23.19
2022-08-05T00:31:07.822Z,23.16
2022-08-05T00:34:55.706Z,23.13
2022-08-05T00:37:11.270Z,23.07
2022-08-05T00:39:14.020Z,23.00
2022-08-05T00:41:54.876Z,22.96
2022-08-05T00:44:30.438Z,22.93
2022-08-05T00:47:03.783Z,22.88
2022-08-05T00:49:32.435Z,22.82
2022-08-05T00:52:00.655Z,22.79
2022-08-05T00:54:28.151Z,22.75
2022-08-05T00:56:57.474Z,22.73
2022-08-05T00:59:24.676Z,22.69
2022-08-05T01:01:52.009Z,22.64
2022-08-05T01:04:20.350Z,22.58
2022-08-05T01:06:54.998Z,22.53
2022-08-05T01:09:22.889Z,22.53
2022-08-05T01:11:53.540Z,22.48
2022-08-05T01:15:35.077Z,22.42
2022-08-05T01:18:09.863Z,22.40
2022-08-05T01:20:57.067Z,22.34
2022-08-05T01:24:01.708Z,22.24
2022-08-05T01:27:17.741Z,22.21
2022-08-05T01:29:54.711Z,22.16
2022-08-05T01:32:27.996Z,22.13
2022-08-05T01:35:02.138Z,22.11
2022-08-05T01:37:45.131Z,22.05
2022-08-05T01:40:17.839Z,22.05
2022-08-05T01:42:49.197Z,22.01
2022-08-05T01:45:19.579Z,21.96
2022-08-05T01:47:50.545Z,21.92
2022-08-05T01:50:29.679Z,21.89
2022-08-05T01:53:02.753Z,21.84
2022-08-05T01:55:36.333Z,21.81
2022-08-05T01:58:15.482Z,21.74
2022-08-05T02:00:50.434Z,21.70
2022-08-05T02:03:46.769Z,21.70
2022-08-05T02:06:37.523Z,21.69
2022-08-05T02:09:03.263Z,21.67
2022-08-05T02:11:47.882Z,21.67
2022-08-05T02:14:34.508Z,21.61
2022-08-05T02:18:33.134Z,21.59
2022-08-05T02:20:52.569Z,21.57
2022-08-05T02:23:26.642Z,21.56
2022-08-05T02:25:57.316Z,21.55
2022-08-05T02:28:36.432Z,21.54
2022-08-05T02:31:21.242Z,21.51
2022-08-05T02:34:02.005Z,21.47
2022-08-05T02:36:35.447Z,21.46
2022-08-05T02:39:08.778Z,21.45
2022-08-05T02:41:57.948Z,21.43
2022-08-05T02:44:28.970Z,21.40
2022-08-05T02:47:00.346Z,21.39
2022-08-05T02:49:40.870Z,21.33
2022-08-05T02:52:29.978Z,21.27
2022-08-05T02:55:05.223Z,21.26
2022-08-05T02:58:11.265Z,21.24
2022-08-05T03:00:22.833Z,21.13
2022-08-05T03:02:54.836Z,21.15
2022-08-05T03:06:57.014Z,21.13
2022-08-05T03:08:12.178Z,21.08
2022-08-05T03:11:47.620Z,21.07
2022-08-05T03:13:51.928Z,21.04
2022-08-05T03:16:21.080Z,21.03
2022-08-05T03:18:48.832Z,21.00
2022-08-05T03:21:16.237Z,20.97
2022-08-05T03:23:45.736Z,20.93
2022-08-05T03:26:31.781Z,20.91
2022-08-05T03:29:00.405Z,20.85
2022-08-05T03:31:55.922Z,20.83
2022-08-05T03:34:17.387Z,20.82
2022-08-05T03:36:45.987Z,20.82
2022-08-05T03:39:20.377Z,20.79
2022-08-05T03:41:56.313Z,20.76
2022-08-05T03:44:25.229Z,20.78
2022-08-05T03:46:56.379Z,20.73
2022-08-05T03:49:24.273Z,20.67
2022-08-05T03:52:48.404Z,20.66
2022-08-05T03:56:01.098Z,20.63
2022-08-05T03:57:57.368Z,20.58
2022-08-05T04:00:27.344Z,20.57
2022-08-05T04:03:02.876Z,20.55
2022-08-05T04:05:35.216Z,20.52
2022-08-05T04:08:05.837Z,20.49
2022-08-05T04:10:52.711Z,20.45
2022-08-05T04:13:20.102Z,20.45
2022-08-05T04:15:52.882Z,20.44
2022-08-05T04:18:31.175Z,20.43
2022-08-05T04:20:59.139Z,20.41
2022-08-05T04:24:05.618Z,20.39
2022-08-05T04:26:21.047Z,20.33
2022-08-05T04:28:57.368Z,20.29
2022-08-05T04:31:33.967Z,20.37
2022-08-05T04:34:18.414Z,20.39
2022-08-05T04:36:53.408Z,20.38
2022-08-05T04:39:21.213Z,20.37
2022-08-05T04:41:51.168Z,20.37
2022-08-05T04:44:21.375Z,20.41
2022-08-05T04:47:08.982Z,20.42
2022-08-05T04:50:01.861Z,20.42
2022-08-05T04:52:27.307Z,20.43
2022-08-05T04:54:56.951Z,20.44
2022-08-05T04:57:28.948Z,20.46
2022-08-05T04:59:58.544Z,20.51
2022-08-05T05:02:36.105Z,20.56
2022-08-05T05:05:16.976Z,20.57
2022-08-05T05:08:03.445Z,20.58
2022-08-05T05:10:47.314Z,20.62
2022-08-05T05:13:23.642Z,20.62
2022-08-05T05:15:57.004Z,20.65
2022-08-05T05:18:28.694Z,20.68
2022-08-05T05:21:00.503Z,20.70
2022-08-05T05:23:27.736Z,20.71
2022-08-05T05:26:15.292Z,20.72
2022-08-05T05:28:45.135Z,20.75
2022-08-05T05:31:13.213Z,20.75
2022-08-05T05:33:57.038Z,20.73
2022-08-05T05:36:28.330Z,20.78
2022-08-05T05:38:56.288Z,20.82
2022-08-05T05:41:24.506Z,20.83
2022-08-05T05:43:58.311Z,20.84
2022-08-05T05:46:27.421Z,20.85
2022-08-05T05:48:54.652Z,20.92
2022-08-05T05:51:27.999Z,20.98
2022-08-05T05:53:58.811Z,21.06
2022-08-05T05:56:34.476Z,21.16
2022-08-05T05:59:05.801Z,21.22
2022-08-05T06:01:38.959Z,21.28
2022-08-05T06:04:12.960Z,21.40
2022-08-05T06:06:47.377Z,21.50
2022-08-05T06:09:27.475Z,21.58
2022-08-05T06:12:05.613Z,21.68
2022-08-05T06:14:36.964Z,21.75
2022-08-05T06:17:22.202Z,21.83
2022-08-05T06:19:56.588Z,21.92
2022-08-05T06:22:33.798Z,22.02
2022-08-05T06:25:24.452Z,22.11
2022-08-05T06:28:10.871Z,22.20
2022-08-05T06:30:39.887Z,22.30
2022-08-05T06:33:09.970Z,22.37
2022-08-05T06:36:09.286Z,22.49
2022-08-05T06:38:36.282Z,22.59
2022-08-05T06:41:07.970Z,22.66
2022-08-05T06:43:51.473Z,22.74
2022-08-05T06:46:29.771Z,22.82
2022-08-05T06:49:01.057Z,22.89
2022-08-05T06:51:31.318Z,22.99
2022-08-05T06:54:01.972Z,23.05
2022-08-05T06:56:34.555Z,23.13
2022-08-05T06:59:08.503Z,23.19
2022-08-05T07:01:40.692Z,23.27
2022-08-05T07:04:09.737Z,23.31
2022-08-05T07:06:37.727Z,23.38
2022-08-05T07:09:05.294Z,23.45
2022-08-05T07:11:37.340Z,23.51
2022-08-05T07:14:07.356Z,23.56
2022-08-05T07:18:01.239Z,23.61
2022-08-05T07:22:17.624Z,23.72
2022-08-05T07:24:53.541Z,23.81
2022-08-05T07:27:21.576Z,23.87
2022-08-05T07:30:27.578Z,23.91
2022-08-05T07:32:38.294Z,23.98
2022-08-05T07:36:03.736Z,24.05
2022-08-05T07:38:01.343Z,24.10
2022-08-05T07:40:33.116Z,24.14
2022-08-05T07:43:04.698Z,24.16
2022-08-05T07:45:57.135Z,24.24
2022-08-05T07:49:00.348Z,24.30
2022-08-05T07:51:23.002Z,24.37
2022-08-05T07:53:51.827Z,24.42
2022-08-05T07:57:02.526Z,24.43
2022-08-05T07:59:08.610Z,24.47
2022-08-05T08:01:41.670Z,24.50
2022-08-05T08:04:34.342Z,24.54
2022-08-05T08:07:07.379Z,24.61
2022-08-05T08:09:35.360Z,24.66
2022-08-05T08:12:12.502Z,24.71
2022-08-05T08:14:46.755Z,24.75
2022-08-05T08:17:15.822Z,24.83
2022-08-05T08:20:22.114Z,24.86
2022-08-05T08:22:33.490Z,24.93
2022-08-05T08:25:03.120Z,24.97
2022-08-05T08:27:40.107Z,25.05
2022-08-05T08:30:29.433Z,25.11
2022-08-05T08:33:08.239Z,25.18
2022-08-05T08:35:41.009Z,25.23
2022-08-05T08:38:11.735Z,25.29
2022-08-05T08:40:50.519Z,25.37
2022-08-05T08:45:16.808Z,25.42
2022-08-05T08:46:10.002Z,25.47
2022-08-05T08:49:08.047Z,25.55
2022-08-05T08:52:03.968Z,25.62
2022-08-05T08:54:28.308Z,25.67
2022-08-05T08:56:56.472Z,25.75
2022-08-05T08:59:27.546Z,25.79
2022-08-05T09:02:08.408Z,25.83
2022-08-05T09:04:37.655Z,25.86
2022-08-05T09:07:29.139Z,25.98
2022-08-05T09:10:07.551Z,26.07
2022-08-05T09:12:35.774Z,26.12
2022-08-05T09:15:06.624Z,26.21
2022-08-05T09:17:40.558Z,26.25
2022-08-05T09:20:21.029Z,26.35
2022-08-05T09:23:07.823Z,26.46
2022-08-05T09:26:02.518Z,26.51
2022-08-05T09:28:32.192Z,26.58
2022-08-05T09:31:43.846Z,26.67
2022-08-05T09:33:56.845Z,26.77
2022-08-05T09:36:27.700Z,26.82
2022-08-05T09:39:18.367Z,26.92
2022-08-05T09:41:59.271Z,27.03
2022-08-05T09:44:45.451Z,27.08
2022-08-05T09:47:28.613Z,27.19
2022-08-05T09:50:04.456Z,27.24
2022-08-05T09:52:36.670Z,27.35
2022-08-05T09:55:56.621Z,27.40
2022-08-05T09:58:09.636Z,27.50
2022-08-05T10:00:39.075Z,27.56
2022-08-05T10:03:11.669Z,27.66
2022-08-05T10:05:39.918Z,27.71
2022-08-05T10:08:34.603Z,27.78
2022-08-05T10:10:54.990Z,27.86
2022-08-05T10:13:45.754Z,27.91
2022-08-05T10:16:41.963Z,27.96
2022-08-05T10:19:23.473Z,28.02
2022-08-05T10:21:59.764Z,28.12
2022-08-05T10:24:28.619Z,28.18
2022-08-05T10:26:56.034Z,28.28
2022-08-05T10:30:07.105Z,28.39
2022-08-05T10:32:53.917Z,28.46
2022-08-05T10:35:04.162Z,28.57
2022-08-05T10:37:37.488Z,28.60
2022-08-05T10:40:28.112Z,28.59
2022-08-05T10:43:08.024Z,28.58
2022-08-05T10:45:42.319Z,28.59
2022-08-05T10:48:56.886Z,28.51
2022-08-05T10:51:28.740Z,28.49
2022-08-05T10:54:23.061Z,28.44
2022-08-05T10:56:54.558Z,28.36
2022-08-05T11:00:02.793Z,28.28
2022-08-05T11:02:38.451Z,28.21
2022-08-05T11:05:10.679Z,28.16
2022-08-05T11:08:12.733Z,28.12
2022-08-05T11:10:50.376Z,28.07
2022-08-05T11:13:54.890Z,28.01
2022-08-05T11:20:46.703Z,27.88
2022-08-05T11:24:03.229Z,27.84
2022-08-05T11:26:28.151Z,27.74
2022-08-05T11:29:11.450Z,27.68
2022-08-05T11:31:58.616Z,27.63
2022-08-05T11:34:51.446Z,27.55
2022-08-05T11:41:56.086Z,27.35
2022-08-05T11:44:40.559Z,27.29
2022-08-05T11:47:11.116Z,27.17
2022-08-05T11:49:42.944Z,27.07
2022-08-05T11:52:11.931Z,27.02
2022-08-05T11:54:41.434Z,26.95
2022-08-05T11:57:25.287Z,26.87
2022-08-05T11:59:54.409Z,26.74
2022-08-05T12:02:32.845Z,26.70
2022-08-05T12:05:07.513Z,26.68
2022-08-05T12:08:08.073Z,26.67
2022-08-05T12:10:43.567Z,26.61
2022-08-05T12:13:27.822Z,26.57
2022-08-05T12:16:18.803Z,26.53
2022-08-05T12:18:49.035Z,26.50
2022-08-05T12:21:39.028Z,26.58
2022-08-05T12:24:10.599Z,26.74
2022-08-05T12:26:44.240Z,26.86
2022-08-05T12:29:27.055Z,26.88
2022-08-05T12:31:58.496Z,26.86
2022-08-05T12:34:37.101Z,26.82
2022-08-05T12:37:09.363Z,26.83
2022-08-05T12:39:40.812Z,26.88
2022-08-05T12:42:16.611Z,26.92
2022-08-05T12:44:45.641Z,26.94
2022-08-05T12:47:30.391Z,27.05
2022-08-05T12:50:03.870Z,27.29
2022-08-05T12:52:39.209Z,27.64
2022-08-05T12:55:25.680Z,27.96
2022-08-05T12:58:50.805Z,28.15
2022-08-05T13:02:02.521Z,28.18
2022-08-05T13:03:42.506Z,28.12
2022-08-05T13:06:17.688Z,28.03
2022-08-05T13:08:50.695Z,27.98
2022-08-05T13:11:59.967Z,27.87
2022-08-05T13:14:25.133Z,27.81
2022-08-05T13:17:20.456Z,27.66
2022-08-05T13:20:14.657Z,27.57
2022-08-05T13:22:52.521Z,27.50
2022-08-05T13:25:21.952Z,27.48
2022-08-05T13:27:54.947Z,27.47
2022-08-05T13:30:34.221Z,27.46
2022-08-05T13:33:04.385Z,27.42
2022-08-05T13:35:47.190Z,27.39
2022-08-05T13:38:30.859Z,27.39
2022-08-05T13:41:03.624Z,27.36
2022-08-05T13:43:44.220Z,27.32
2022-08-05T13:46:15.014Z,27.33
2022-08-05T13:48:57.550Z,27.30
2022-08-05T13:51:40.244Z,27.34
2022-08-05T13:54:12.808Z,27.36
2022-08-05T13:56:50.722Z,27.38
2022-08-05T13:59:24.392Z,27.35
2022-08-05T14:01:57.588Z,27.29
2022-08-05T14:04:27.748Z,27.23
2022-08-05T14:06:58.654Z,27.20
2022-08-05T14:09:42.804Z,27.22
2022-08-05T14:12:18.042Z,27.22
2022-08-05T14:14:59.613Z,27.23
2022-08-05T14:17:28.397Z,27.25
2022-08-05T14:20:00.933Z,27.24
2022-08-05T14:22:30.504Z,27.23
2022-08-05T14:25:06.482Z,27.22
2022-08-05T14:27:47.536Z,27.18
2022-08-05T14:30:20.149Z,27.11
2022-08-05T14:32:49.191Z,27.10
2022-08-05T14:35:20.689Z,27.08
2022-08-05T14:37:55.017Z,27.01
2022-08-05T14:40:24.417Z,26.97
2022-08-05T14:42:52.702Z,26.97
2022-08-05T14:45:20.041Z,26.96
2022-08-05T14:48:02.869Z,26.94
2022-08-05T14:50:31.882Z,26.95
2022-08-05T14:53:00.252Z,26.90
2022-08-05T14:55:39.183Z,26.95
2022-08-05T14:58:11.680Z,27.16
2022-08-05T15:00:58.430Z,27.43
2022-08-05T15:03:33.537Z,27.92
2022-08-05T15:06:13.004Z,28.48
2022-08-05T15:08:59.776Z,29.00
2022-08-05T15:11:52.723Z,29.45
2022-08-05T15:14:34.871Z,29.51
2022-08-05T15:17:09.991Z,29.28
2022-08-05T15:19:56.406Z,29.04
2022-08-05T15:22:27.062Z,28.81
2022-08-05T15:24:56.554Z,28.57
2022-08-05T15:27:25.759Z,28.37
2022-08-05T15:29:56.751Z,28.17
2022-08-05T15:32:27.463Z,27.99
2022-08-05T15:34:57.443Z,27.79
2022-08-05T15:38:33.631Z,27.65
2022-08-05T15:40:58.917Z,27.46
2022-08-05T15:43:12.445Z,27.29
2022-08-05T15:45:46.140Z,27.15
2022-08-05T15:48:13.955Z,27.03
2022-08-05T15:50:47.850Z,26.92
2022-08-05T15:53:15.395Z,26.83
2022-08-05T15:56:02.686Z,26.74
2022-08-05T15:58:36.935Z,26.59
2022-08-05T16:01:16.232Z,26.44
2022-08-05T16:03:50.493Z,26.30
2022-08-05T16:06:20.760Z,26.14
2022-08-05T16:08:53.467Z,25.99
2022-08-05T16:11:40.306Z,25.60
2022-08-05T16:14:09.114Z,25.49
2022-08-05T16:16:36.733Z,25.32
2022-08-05T16:19:05.048Z,25.20
2022-08-05T16:21:58.721Z,25.09
2022-08-05T16:24:39.738Z,24.98
2022-08-05T16:27:08.183Z,24.84
2022-08-05T16:29:37.045Z,24.78
2022-08-05T16:32:06.618Z,24.65
2022-08-05T16:34:39.285Z,24.48
2022-08-05T16:38:02.037Z,24.26
2022-08-05T16:40:04.944Z,24.13
2022-08-05T16:42:35.249Z,24.03
2022-08-05T16:45:05.911Z,24.00
2022-08-05T16:47:54.881Z,23.92
2022-08-05T16:50:25.905Z,23.89
2022-08-05T16:52:56.466Z,23.83
2022-08-05T16:55:26.160Z,23.77
2022-08-05T16:58:01.464Z,23.73
2022-08-05T17:00:34.819Z,23.66
2022-08-05T17:03:15.253Z,23.67
2022-08-05T17:05:51.724Z,23.67
2022-08-05T17:08:33.483Z,23.63
2022-08-05T17:11:16.486Z,23.47
2022-08-05T17:13:45.154Z,23.43
2022-08-05T17:16:33.498Z,23.32
2022-08-05T17:19:01.976Z,23.13
2022-08-05T17:21:35.688Z,22.98
2022-08-05T17:24:19.718Z,22.84
2022-08-05T17:26:53.948Z,22.70
2022-08-05T17:29:33.565Z,22.57
2022-08-05T17:32:11.290Z,22.50
2022-08-05T17:34:40.177Z,22.39
2022-08-05T17:37:27.327Z,22.31
2022-08-05T17:39:57.485Z,22.17
2022-08-05T17:42:32.006Z,22.17
2022-08-05T17:45:09.939Z,22.09
2022-08-05T17:47:52.964Z,22.01
2022-08-05T17:50:28.299Z,21.92
2022-08-05T17:52:59.926Z,21.94
2022-08-05T17:55:37.664Z,21.87
2022-08-05T17:58:09.834Z,21.78
2022-08-05T18:00:44.667Z,21.73
2022-08-05T18:03:48.481Z,21.70
2022-08-05T18:06:11.100Z,21.71
2022-08-05T18:08:45.024Z,21.66
2022-08-05T18:11:24.866Z,21.57
2022-08-05T18:14:06.714Z,21.62
2022-08-05T18:16:51.091Z,21.61
2022-08-05T18:19:22.660Z,21.57
2022-08-05T18:22:07.556Z,21.55
2022-08-05T18:24:39.649Z,21.51
2022-08-05T18:27:18.115Z,21.49
2022-08-05T18:29:54.145Z,21.45
2022-08-05T18:32:27.970Z,21.44
2022-08-05T18:34:56.767Z,21.43
2022-08-05T18:37:34.164Z,21.40
2022-08-05T18:41:03.349Z,21.41
2022-08-05T18:42:59.512Z,21.37
2022-08-05T18:45:41.691Z,21.36
2022-08-05T18:48:10.993Z,21.35
2022-08-05T18:50:42.232Z,21.24
2022-08-05T18:53:19.131Z,21.22
2022-08-05T18:55:50.523Z,21.28
2022-08-05T18:58:17.722Z,21.27
2022-08-05T19:00:44.982Z,21.24
2022-08-05T19:03:15.529Z,21.21
2022-08-05T19:06:12.227Z,21.23
2022-08-05T19:08:31.258Z,21.20
2022-08-05T19:11:04.543Z,21.19
2022-08-05T19:13:35.586Z,21.22
2022-08-05T19:16:05.131Z,21.24
2022-08-05T19:18:52.424Z,21.19
2022-08-05T19:21:19.593Z,21.21
2022-08-05T19:24:07.483Z,21.17
2022-08-05T19:26:34.946Z,21.07
2022-08-05T19:29:11.446Z,21.08
2022-08-05T19:31:44.809Z,21.11
2022-08-05T19:34:18.626Z,21.12
2022-08-05T19:36:47.290Z,21.10
2022-08-05T19:39:17.276Z,21.11
2022-08-05T19:42:06.916Z,21.13
2022-08-05T19:44:31.941Z,21.11
2022-08-05T19:46:59.951Z,21.10
2022-08-05T19:49:27.161Z,21.09
2022-08-05T19:52:08.758Z,21.10
2022-08-05T19:54:41.917Z,21.07
2022-08-05T19:57:10.095Z,21.06
2022-08-05T19:59:55.446Z,21.05
2022-08-05T20:02:28.456Z,21.04
2022-08-05T20:04:58.948Z,21.02
2022-08-05T20:07:46.271Z,21.00
2022-08-05T20:10:17.496Z,21.00
2022-08-05T20:12:49.263Z,20.99
2022-08-05T20:15:48.231Z,20.97
2022-08-05T20:18:10.652Z,20.99
2022-08-05T20:20:57.097Z,20.98
2022-08-05T20:23:39.524Z,20.95
2022-08-05T20:26:17.293Z,20.91
2022-08-05T20:28:49.717Z,20.92
2022-08-05T20:31:21.711Z,20.90
2022-08-05T20:33:51.207Z,20.88
2022-08-05T20:36:21.767Z,20.86
2022-08-05T20:38:54.440Z,20.83
2022-08-05T20:41:44.358Z,20.81
2022-08-05T20:44:29.127Z,20.77
2022-08-05T20:47:05.196Z,20.76
2022-08-05T20:49:39.755Z,20.74
2022-08-05T20:52:08.496Z,20.70
2022-08-05T20:54:59.087Z,20.69
2022-08-05T20:57:41.803Z,20.68
2022-08-05T21:00:41.524Z,20.68
2022-08-05T21:02:58.932Z,20.62
2022-08-05T21:05:48.363Z,20.61
2022-08-05T21:08:15.934Z,20.58
2022-08-05T21:10:48.571Z,20.55
2022-08-05T21:13:20.253Z,20.53
2022-08-05T21:15:55.222Z,20.48
2022-08-05T21:18:23.415Z,20.47
2022-08-05T21:20:50.717Z,20.44
2022-08-05T21:23:17.984Z,20.43
2022-08-05T21:25:45.180Z,20.35
2022-08-05T21:28:12.380Z,20.30
2022-08-05T21:30:45.749Z,20.30
2022-08-05T21:33:22.286Z,20.29
2022-08-05T21:35:58.606Z,20.28
2022-08-05T21:38:27.608Z,20.28
2022-08-05T21:40:54.806Z,20.26
2022-08-05T21:43:24.808Z,20.26
2022-08-05T21:45:57.836Z,20.26
2022-08-05T21:48:28.953Z,20.24
2022-08-05T21:50:59.255Z,20.23
2022-08-05T21:53:27.374Z,20.23
2022-08-05T21:56:04.427Z,20.23
2022-08-05T21:58:42.018Z,20.20
2022-08-05T22:01:10.608Z,20.17
2022-08-05T22:03:52.630Z,20.20
2022-08-05T22:06:23.085Z,20.23
2022-08-05T22:09:14.636Z,20.22
2022-08-05T22:11:46.952Z,20.22
2022-08-05T22:14:33.428Z,20.20
2022-08-05T22:17:06.628Z,20.18
2022-08-05T22:20:03.277Z,20.19
2022-08-05T22:22:27.351Z,20.20
2022-08-05T22:24:58.847Z,20.22
2022-08-05T22:28:09.240Z,20.23
2022-08-05T22:30:17.173Z,20.20
2022-08-05T22:32:44.590Z,20.18
2022-08-05T22:35:13.536Z,20.19
2022-08-05T22:37:59.103Z,20.18
2022-08-05T22:40:27.370Z,20.17
2022-08-05T22:42:58.450Z,20.16
2022-08-05T22:45:25.974Z,20.16
2022-08-05T22:47:57.450Z,20.14
2022-08-05T22:50:27.799Z,20.11
2022-08-05T22:52:55.688Z,20.12
2022-08-05T22:55:24.620Z,20.11
2022-08-05T22:57:54.979Z,20.10
2022-08-05T23:00:23.779Z,20.06
2022-08-05T23:02:52.129Z,20.07
2022-08-05T23:05:22.124Z,20.06
2022-08-05T23:07:51.713Z,20.04
2022-08-05T23:10:23.870Z,20.03
2022-08-05T23:12:54.736Z,20.03
2022-08-05T23:15:34.848Z,20.00
2022-08-05T23:18:06.205Z,20.00
2022-08-05T23:20:39.511Z,20.00
2022-08-05T23:23:08.422Z,19.98
2022-08-05T23:25:51.635Z,19.98
2022-08-05T23:28:28.880Z,19.93
2022-08-05T23:31:15.942Z,19.88
2022-08-05T23:34:05.969Z,19.89
2022-08-05T23:36:40.262Z,19.88
2022-08-05T23:39:17.471Z,19.90
2022-08-05T23:41:51.960Z,19.87
2022-08-05T23:44:22.679Z,19.87
2022-08-05T23:46:52.650Z,19.86
2022-08-05T23:49:23.867Z,19.83
2022-08-05T23:52:00.907Z,19.84
2022-08-05T23:54:36.542Z,19.85
2022-08-05T23:57:07.767Z,19.84
